Etusivu
METAR-TAF:

METAR-TAF

Lentoasemat :

Vuoreija, Norja

Leveyspiiri: 70-21N, Pituuspiiri: 031-03E, korkeus merenpinnasta: 12 m

Tämänhetkinen sää

Tämä raportti tehtiin 22 tuntia ja 58 minuuttia sitten, kello 19.50 UTC
Tuuli 3 kn idästä/koillisesta
Lämpötila 9°C
Kosteus 87%
Ilmanpaine 1022 hPa
Näkyvyys 10 km tai enemmän
ei pilviä alle 1500 m:ssä eikä cumulonimbus-pilviä

METAR: ENSS 211950Z 06003KT CAVOK 09/07 Q1022 RMK WIND 500FT 06006KT

Aika: 20:48 (18:48 UTC)


TAF: puuttuu

Säähavainnot ja -ennusteet yli 4000 lentoasemalta (METAR- ja TAF-raportit).

Käytössä olevat sääasemat on merkitty karttaan keltaisilla ja punaisilla pisteillä.

Aseta hiiri pisteen päälle nähdäksesi sääaseman nimen.

Klikkaa sitten nähdäksesi säähavainnot ja -ennusteet.

Kartan vaihtaminen: klikkaa mustalla rastilla varustettuja vihreitä pisteitä, niin voit zoomata sisään; viivalla varustettua vihreää pistettä, niin voit zoomata ulos tai vihreitä nuolia, niin pääset viereisille kartoille.


METAR-TAF: